sensor_id;sensor_type;location;lat;lon;timestamp;P1;durP1;ratioP1;P2;durP2;ratioP2
51525;SDS011;37611;51.794;21.590;2022-12-29T00:04:02;22.10;;;13.50;;
51525;SDS011;37611;51.794;21.590;2022-12-29T00:08:04;19.40;;;12.30;;
51525;SDS011;37611;51.794;21.590;2022-12-29T00:12:06;23.60;;;13.80;;
51525;SDS011;37611;51.794;21.590;2022-12-29T00:16:08;26.80;;;14.80;;
51525;SDS011;37611;51.794;21.590;2022-12-29T00:20:09;22.70;;;14.90;;
51525;SDS011;37611;51.794;21.590;2022-12-29T00:24:29;21.40;;;13.10;;
51525;SDS011;37611;51.794;21.590;2022-12-29T00:28:50;23.00;;;13.60;;
51525;SDS011;37611;51.794;21.590;2022-12-29T00:37:37;24.30;;;13.60;;
51525;SDS011;37611;51.794;21.590;2022-12-29T00:42:04;19.10;;;13.60;;
51525;SDS011;37611;51.794;21.590;2022-12-29T00:46:42;19.70;;;12.70;;
51525;SDS011;37611;51.794;21.590;2022-12-29T00:50:44;22.90;;;14.50;;
51525;SDS011;37611;51.794;21.590;2022-12-29T00:54:45;21.70;;;13.00;;
51525;SDS011;37611;51.794;21.590;2022-12-29T00:58:47;23.00;;;13.20;;
51525;SDS011;37611;51.794;21.590;2022-12-29T01:02:49;19.80;;;12.40;;
51525;SDS011;37611;51.794;21.590;2022-12-29T01:06:51;19.10;;;12.10;;
51525;SDS011;37611;51.794;21.590;2022-12-29T01:10:59;19.20;;;12.30;;
51525;SDS011;37611;51.794;21.590;2022-12-29T01:15:02;17.10;;;11.50;;
51525;SDS011;37611;51.794;21.590;2022-12-29T01:19:04;17.80;;;11.10;;
51525;SDS011;37611;51.794;21.590;2022-12-29T01:23:06;19.00;;;11.10;;
51525;SDS011;37611;51.794;21.590;2022-12-29T01:27:08;19.20;;;11.20;;
51525;SDS011;37611;51.794;21.590;2022-12-29T01:31:10;16.70;;;10.20;;
51525;SDS011;37611;51.794;21.590;2022-12-29T01:35:14;18.40;;;11.20;;
51525;SDS011;37611;51.794;21.590;2022-12-29T01:39:15;19.60;;;12.10;;
51525;SDS011;37611;51.794;21.590;2022-12-29T01:43:17;20.60;;;11.80;;
51525;SDS011;37611;51.794;21.590;2022-12-29T01:52:10;17.50;;;11.10;;
51525;SDS011;37611;51.794;21.590;2022-12-29T01:56:12;16.40;;;9.80;;
51525;SDS011;37611;51.794;21.590;2022-12-29T02:00:18;16.10;;;10.20;;
51525;SDS011;37611;51.794;21.590;2022-12-29T02:04:20;14.10;;;9.20;;
51525;SDS011;37611;51.794;21.590;2022-12-29T02:08:25;17.00;;;10.20;;
51525;SDS011;37611;51.794;21.590;2022-12-29T02:12:30;16.40;;;10.10;;
51525;SDS011;37611;51.794;21.590;2022-12-29T02:25:10;16.40;;;9.60;;
51525;SDS011;37611;51.794;21.590;2022-12-29T02:29:40;16.50;;;9.10;;
51525;SDS011;37611;51.794;21.590;2022-12-29T02:42:36;14.10;;;9.00;;
51525;SDS011;37611;51.794;21.590;2022-12-29T02:55:01;16.30;;;11.80;;
51525;SDS011;37611;51.794;21.590;2022-12-29T02:59:03;21.70;;;13.00;;
51525;SDS011;37611;51.794;21.590;2022-12-29T03:03:16;17.00;;;11.60;;
51525;SDS011;37611;51.794;21.590;2022-12-29T03:07:23;18.50;;;10.10;;
51525;SDS011;37611;51.794;21.590;2022-12-29T03:11:56;14.90;;;10.00;;
51525;SDS011;37611;51.794;21.590;2022-12-29T03:20:34;16.10;;;10.20;;
51525;SDS011;37611;51.794;21.590;2022-12-29T03:24:42;13.90;;;9.40;;
51525;SDS011;37611;51.794;21.590;2022-12-29T03:28:51;15.30;;;10.20;;
51525;SDS011;37611;51.794;21.590;2022-12-29T03:32:59;15.70;;;10.10;;
51525;SDS011;37611;51.794;21.590;2022-12-29T03:37:06;15.70;;;10.20;;
51525;SDS011;37611;51.794;21.590;2022-12-29T03:41:23;14.00;;;8.90;;
51525;SDS011;37611;51.794;21.590;2022-12-29T03:45:30;16.20;;;10.80;;
51525;SDS011;37611;51.794;21.590;2022-12-29T03:49:31;16.00;;;10.10;;
51525;SDS011;37611;51.794;21.590;2022-12-29T03:53:34;15.60;;;9.50;;
51525;SDS011;37611;51.794;21.590;2022-12-29T03:57:36;16.80;;;10.70;;
51525;SDS011;37611;51.794;21.590;2022-12-29T04:01:37;13.70;;;9.10;;
51525;SDS011;37611;51.794;21.590;2022-12-29T04:05:39;15.00;;;9.70;;
51525;SDS011;37611;51.794;21.590;2022-12-29T04:09:41;15.90;;;9.50;;
51525;SDS011;37611;51.794;21.590;2022-12-29T04:13:42;17.00;;;10.50;;
51525;SDS011;37611;51.794;21.590;2022-12-29T04:17:44;15.60;;;9.90;;
51525;SDS011;37611;51.794;21.590;2022-12-29T04:21:46;16.30;;;10.20;;
51525;SDS011;37611;51.794;21.590;2022-12-29T04:25:48;14.40;;;9.40;;
51525;SDS011;37611;51.794;21.590;2022-12-29T04:29:49;18.40;;;12.50;;
51525;SDS011;37611;51.794;21.590;2022-12-29T04:33:51;13.50;;;10.00;;
51525;SDS011;37611;51.794;21.590;2022-12-29T04:37:53;16.10;;;11.20;;
51525;SDS011;37611;51.794;21.590;2022-12-29T04:41:54;13.10;;;8.50;;
51525;SDS011;37611;51.794;21.590;2022-12-29T04:45:56;13.30;;;8.40;;
51525;SDS011;37611;51.794;21.590;2022-12-29T04:49:58;16.90;;;9.50;;
51525;SDS011;37611;51.794;21.590;2022-12-29T04:54:00;15.90;;;9.00;;
51525;SDS011;37611;51.794;21.590;2022-12-29T04:58:01;10.90;;;7.70;;
51525;SDS011;37611;51.794;21.590;2022-12-29T05:02:03;13.80;;;8.60;;
51525;SDS011;37611;51.794;21.590;2022-12-29T05:06:05;12.10;;;8.40;;
51525;SDS011;37611;51.794;21.590;2022-12-29T05:10:07;11.20;;;7.70;;
51525;SDS011;37611;51.794;21.590;2022-12-29T05:14:09;13.40;;;7.70;;
51525;SDS011;37611;51.794;21.590;2022-12-29T05:18:11;11.50;;;7.40;;
51525;SDS011;37611;51.794;21.590;2022-12-29T05:22:12;13.80;;;7.70;;
51525;SDS011;37611;51.794;21.590;2022-12-29T05:26:15;11.70;;;7.70;;
51525;SDS011;37611;51.794;21.590;2022-12-29T05:30:17;11.40;;;7.40;;
51525;SDS011;37611;51.794;21.590;2022-12-29T05:34:19;11.70;;;8.80;;
51525;SDS011;37611;51.794;21.590;2022-12-29T05:38:20;13.60;;;8.00;;
51525;SDS011;37611;51.794;21.590;2022-12-29T05:42:22;11.70;;;7.50;;
51525;SDS011;37611;51.794;21.590;2022-12-29T05:46:24;12.00;;;7.00;;
51525;SDS011;37611;51.794;21.590;2022-12-29T05:50:25;14.70;;;6.70;;
51525;SDS011;37611;51.794;21.590;2022-12-29T05:54:27;11.00;;;7.20;;
51525;SDS011;37611;51.794;21.590;2022-12-29T05:58:29;10.20;;;7.00;;
51525;SDS011;37611;51.794;21.590;2022-12-29T06:02:31;11.80;;;7.80;;
51525;SDS011;37611;51.794;21.590;2022-12-29T06:06:33;15.50;;;9.20;;
51525;SDS011;37611;51.794;21.590;2022-12-29T06:10:34;13.70;;;8.00;;
51525;SDS011;37611;51.794;21.590;2022-12-29T06:14:36;16.60;;;10.00;;
51525;SDS011;37611;51.794;21.590;2022-12-29T06:18:38;12.20;;;9.20;;
51525;SDS011;37611;51.794;21.590;2022-12-29T06:22:40;15.60;;;9.40;;
51525;SDS011;37611;51.794;21.590;2022-12-29T06:26:41;13.50;;;8.90;;
51525;SDS011;37611;51.794;21.590;2022-12-29T06:30:46;11.20;;;8.20;;
51525;SDS011;37611;51.794;21.590;2022-12-29T06:34:49;13.90;;;11.00;;
51525;SDS011;37611;51.794;21.590;2022-12-29T06:38:51;17.30;;;10.70;;
51525;SDS011;37611;51.794;21.590;2022-12-29T06:42:53;14.10;;;8.90;;
51525;SDS011;37611;51.794;21.590;2022-12-29T06:46:55;14.70;;;8.40;;
51525;SDS011;37611;51.794;21.590;2022-12-29T06:50:58;19.90;;;10.10;;
51525;SDS011;37611;51.794;21.590;2022-12-29T06:55:00;13.10;;;9.40;;
51525;SDS011;37611;51.794;21.590;2022-12-29T06:59:02;14.00;;;9.30;;
51525;SDS011;37611;51.794;21.590;2022-12-29T07:03:03;17.50;;;12.10;;
51525;SDS011;37611;51.794;21.590;2022-12-29T07:07:06;19.30;;;13.30;;
51525;SDS011;37611;51.794;21.590;2022-12-29T07:11:07;13.20;;;11.60;;
51525;SDS011;37611;51.794;21.590;2022-12-29T07:15:10;12.30;;;10.70;;
51525;SDS011;37611;51.794;21.590;2022-12-29T07:19:11;19.40;;;12.20;;
51525;SDS011;37611;51.794;21.590;2022-12-29T07:23:13;14.10;;;9.40;;
51525;SDS011;37611;51.794;21.590;2022-12-29T07:27:15;24.00;;;16.20;;
51525;SDS011;37611;51.794;21.590;2022-12-29T07:31:18;13.60;;;10.50;;
51525;SDS011;37611;51.794;21.590;2022-12-29T07:35:22;15.10;;;10.60;;
51525;SDS011;37611;51.794;21.590;2022-12-29T07:39:23;15.50;;;10.80;;
51525;SDS011;37611;51.794;21.590;2022-12-29T07:43:26;13.50;;;8.50;;
51525;SDS011;37611;51.794;21.590;2022-12-29T07:47:28;10.80;;;8.00;;
51525;SDS011;37611;51.794;21.590;2022-12-29T07:51:30;13.70;;;9.30;;
51525;SDS011;37611;51.794;21.590;2022-12-29T07:55:33;15.70;;;10.00;;
51525;SDS011;37611;51.794;21.590;2022-12-29T07:59:34;17.80;;;11.40;;
51525;SDS011;37611;51.794;21.590;2022-12-29T08:03:36;12.90;;;9.30;;
51525;SDS011;37611;51.794;21.590;2022-12-29T08:07:38;13.70;;;9.30;;
51525;SDS011;37611;51.794;21.590;2022-12-29T08:11:39;12.60;;;9.50;;
51525;SDS011;37611;51.794;21.590;2022-12-29T08:15:41;11.20;;;8.30;;
51525;SDS011;37611;51.794;21.590;2022-12-29T08:19:43;9.10;;;7.10;;
51525;SDS011;37611;51.794;21.590;2022-12-29T08:23:45;9.30;;;7.10;;
51525;SDS011;37611;51.794;21.590;2022-12-29T08:27:47;25.90;;;21.10;;
51525;SDS011;37611;51.794;21.590;2022-12-29T08:31:48;27.50;;;20.80;;
51525;SDS011;37611;51.794;21.590;2022-12-29T08:35:50;21.30;;;16.20;;
51525;SDS011;37611;51.794;21.590;2022-12-29T08:39:52;20.60;;;14.30;;
51525;SDS011;37611;51.794;21.590;2022-12-29T08:43:53;20.30;;;14.90;;
51525;SDS011;37611;51.794;21.590;2022-12-29T08:47:55;12.90;;;9.10;;
51525;SDS011;37611;51.794;21.590;2022-12-29T08:51:57;14.40;;;9.90;;
51525;SDS011;37611;51.794;21.590;2022-12-29T08:55:59;9.90;;;7.70;;
51525;SDS011;37611;51.794;21.590;2022-12-29T09:00:02;9.20;;;7.60;;
51525;SDS011;37611;51.794;21.590;2022-12-29T09:04:06;10.10;;;7.30;;
51525;SDS011;37611;51.794;21.590;2022-12-29T09:08:08;9.00;;;6.80;;
51525;SDS011;37611;51.794;21.590;2022-12-29T09:12:10;11.80;;;8.90;;
51525;SDS011;37611;51.794;21.590;2022-12-29T09:16:12;9.70;;;7.20;;
51525;SDS011;37611;51.794;21.590;2022-12-29T09:20:15;9.20;;;7.00;;
51525;SDS011;37611;51.794;21.590;2022-12-29T09:24:18;9.70;;;7.80;;
51525;SDS011;37611;51.794;21.590;2022-12-29T09:28:20;13.40;;;7.90;;
51525;SDS011;37611;51.794;21.590;2022-12-29T09:32:23;10.50;;;8.10;;
51525;SDS011;37611;51.794;21.590;2022-12-29T09:36:25;11.00;;;7.20;;
51525;SDS011;37611;51.794;21.590;2022-12-29T09:40:30;17.30;;;10.00;;
51525;SDS011;37611;51.794;21.590;2022-12-29T09:49:06;18.90;;;11.70;;
51525;SDS011;37611;51.794;21.590;2022-12-29T10:02:12;13.90;;;10.10;;
51525;SDS011;37611;51.794;21.590;2022-12-29T10:06:39;10.70;;;7.90;;
51525;SDS011;37611;51.794;21.590;2022-12-29T10:24:34;16.70;;;11.40;;
51525;SDS011;37611;51.794;21.590;2022-12-29T10:32:52;17.10;;;13.10;;
51525;SDS011;37611;51.794;21.590;2022-12-29T10:36:59;13.10;;;9.70;;
51525;SDS011;37611;51.794;21.590;2022-12-29T10:41:08;13.90;;;8.50;;
51525;SDS011;37611;51.794;21.590;2022-12-29T10:45:15;12.70;;;9.20;;
51525;SDS011;37611;51.794;21.590;2022-12-29T10:49:19;13.80;;;9.60;;
51525;SDS011;37611;51.794;21.590;2022-12-29T10:53:22;11.90;;;7.80;;
51525;SDS011;37611;51.794;21.590;2022-12-29T10:57:38;16.40;;;10.90;;
51525;SDS011;37611;51.794;21.590;2022-12-29T11:01:46;12.70;;;8.40;;
51525;SDS011;37611;51.794;21.590;2022-12-29T11:10:35;15.50;;;11.80;;
51525;SDS011;37611;51.794;21.590;2022-12-29T11:14:40;14.00;;;10.20;;
51525;SDS011;37611;51.794;21.590;2022-12-29T11:18:43;12.30;;;8.40;;
51525;SDS011;37611;51.794;21.590;2022-12-29T11:22:48;12.30;;;7.30;;
51525;SDS011;37611;51.794;21.590;2022-12-29T11:26:50;17.30;;;11.30;;
51525;SDS011;37611;51.794;21.590;2022-12-29T11:30:59;12.70;;;7.40;;
51525;SDS011;37611;51.794;21.590;2022-12-29T11:35:02;14.60;;;9.30;;
51525;SDS011;37611;51.794;21.590;2022-12-29T11:39:05;12.80;;;8.50;;
51525;SDS011;37611;51.794;21.590;2022-12-29T11:43:11;13.10;;;8.60;;
51525;SDS011;37611;51.794;21.590;2022-12-29T11:47:32;11.60;;;7.70;;
51525;SDS011;37611;51.794;21.590;2022-12-29T11:51:41;14.00;;;9.80;;
51525;SDS011;37611;51.794;21.590;2022-12-29T11:55:53;13.30;;;8.50;;
51525;SDS011;37611;51.794;21.590;2022-12-29T11:59:57;15.10;;;10.10;;
51525;SDS011;37611;51.794;21.590;2022-12-29T12:04:21;11.30;;;8.70;;
51525;SDS011;37611;51.794;21.590;2022-12-29T12:12:43;11.70;;;6.80;;
51525;SDS011;37611;51.794;21.590;2022-12-29T12:17:11;15.10;;;9.30;;
51525;SDS011;37611;51.794;21.590;2022-12-29T12:30:16;15.40;;;10.40;;
51525;SDS011;37611;51.794;21.590;2022-12-29T12:34:02;11.60;;;9.30;;
51525;SDS011;37611;51.794;21.590;2022-12-29T12:51:17;14.60;;;10.90;;
51525;SDS011;37611;51.794;21.590;2022-12-29T13:18:18;28.10;;;18.90;;
51525;SDS011;37611;51.794;21.590;2022-12-29T13:22:24;26.40;;;18.60;;
51525;SDS011;37611;51.794;21.590;2022-12-29T13:26:39;24.50;;;18.00;;
51525;SDS011;37611;51.794;21.590;2022-12-29T13:30:53;47.50;;;32.30;;
51525;SDS011;37611;51.794;21.590;2022-12-29T13:35:10;39.10;;;27.70;;
51525;SDS011;37611;51.794;21.590;2022-12-29T13:39:27;32.90;;;21.70;;
51525;SDS011;37611;51.794;21.590;2022-12-29T13:43:35;28.10;;;19.20;;
51525;SDS011;37611;51.794;21.590;2022-12-29T13:47:44;35.30;;;29.40;;
51525;SDS011;37611;51.794;21.590;2022-12-29T13:51:55;48.50;;;34.40;;
51525;SDS011;37611;51.794;21.590;2022-12-29T13:56:07;53.30;;;39.60;;
51525;SDS011;37611;51.794;21.590;2022-12-29T14:00:18;47.30;;;33.70;;
51525;SDS011;37611;51.794;21.590;2022-12-29T14:04:24;37.90;;;29.70;;
51525;SDS011;37611;51.794;21.590;2022-12-29T14:08:28;38.00;;;28.60;;
51525;SDS011;37611;51.794;21.590;2022-12-29T14:12:37;34.10;;;26.50;;
51525;SDS011;37611;51.794;21.590;2022-12-29T14:16:43;41.20;;;29.30;;
51525;SDS011;37611;51.794;21.590;2022-12-29T14:24:58;38.30;;;23.90;;
51525;SDS011;37611;51.794;21.590;2022-12-29T14:33:26;55.20;;;40.00;;
51525;SDS011;37611;51.794;21.590;2022-12-29T14:37:32;51.40;;;36.60;;
51525;SDS011;37611;51.794;21.590;2022-12-29T14:41:37;52.40;;;41.40;;
51525;SDS011;37611;51.794;21.590;2022-12-29T14:45:41;48.30;;;36.50;;
51525;SDS011;37611;51.794;21.590;2022-12-29T14:49:44;43.10;;;28.50;;
51525;SDS011;37611;51.794;21.590;2022-12-29T14:53:47;49.10;;;33.20;;
51525;SDS011;37611;51.794;21.590;2022-12-29T14:57:51;40.20;;;28.50;;
51525;SDS011;37611;51.794;21.590;2022-12-29T15:02:01;42.40;;;27.50;;
51525;SDS011;37611;51.794;21.590;2022-12-29T15:06:09;32.10;;;20.30;;
51525;SDS011;37611;51.794;21.590;2022-12-29T15:10:15;35.10;;;23.60;;
51525;SDS011;37611;51.794;21.590;2022-12-29T15:18:33;99.70;;;55.40;;
51525;SDS011;37611;51.794;21.590;2022-12-29T15:22:35;46.40;;;29.10;;
51525;SDS011;37611;51.794;21.590;2022-12-29T15:26:40;41.10;;;23.00;;
51525;SDS011;37611;51.794;21.590;2022-12-29T15:31:01;31.20;;;21.30;;
51525;SDS011;37611;51.794;21.590;2022-12-29T15:35:21;26.00;;;17.80;;
51525;SDS011;37611;51.794;21.590;2022-12-29T15:39:30;27.40;;;16.10;;
51525;SDS011;37611;51.794;21.590;2022-12-29T15:48:18;25.10;;;19.40;;
51525;SDS011;37611;51.794;21.590;2022-12-29T15:52:23;28.70;;;20.50;;
51525;SDS011;37611;51.794;21.590;2022-12-29T15:56:28;26.00;;;16.60;;
51525;SDS011;37611;51.794;21.590;2022-12-29T16:00:32;26.70;;;18.30;;
51525;SDS011;37611;51.794;21.590;2022-12-29T16:04:35;33.80;;;23.00;;
51525;SDS011;37611;51.794;21.590;2022-12-29T16:08:38;31.90;;;22.60;;
51525;SDS011;37611;51.794;21.590;2022-12-29T16:12:41;29.70;;;23.30;;
51525;SDS011;37611;51.794;21.590;2022-12-29T16:16:43;32.60;;;27.30;;
51525;SDS011;37611;51.794;21.590;2022-12-29T16:20:46;36.60;;;27.60;;
51525;SDS011;37611;51.794;21.590;2022-12-29T16:24:47;33.80;;;24.60;;
51525;SDS011;37611;51.794;21.590;2022-12-29T16:28:50;34.00;;;24.80;;
51525;SDS011;37611;51.794;21.590;2022-12-29T16:32:58;35.80;;;24.70;;
51525;SDS011;37611;51.794;21.590;2022-12-29T16:37:04;36.10;;;24.00;;
51525;SDS011;37611;51.794;21.590;2022-12-29T16:41:29;40.00;;;24.70;;
51525;SDS011;37611;51.794;21.590;2022-12-29T16:49:48;33.00;;;20.60;;
51525;SDS011;37611;51.794;21.590;2022-12-29T16:53:53;34.00;;;22.50;;
51525;SDS011;37611;51.794;21.590;2022-12-29T16:57:57;47.60;;;31.60;;
51525;SDS011;37611;51.794;21.590;2022-12-29T17:02:05;50.80;;;32.80;;
51525;SDS011;37611;51.794;21.590;2022-12-29T17:10:22;88.90;;;49.80;;
51525;SDS011;37611;51.794;21.590;2022-12-29T17:14:44;67.40;;;43.60;;
51525;SDS011;37611;51.794;21.590;2022-12-29T17:18:57;52.60;;;34.90;;
51525;SDS011;37611;51.794;21.590;2022-12-29T17:22:59;57.20;;;35.50;;
51525;SDS011;37611;51.794;21.590;2022-12-29T17:27:01;55.60;;;34.40;;
51525;SDS011;37611;51.794;21.590;2022-12-29T17:31:05;56.10;;;33.00;;
51525;SDS011;37611;51.794;21.590;2022-12-29T17:35:18;104.10;;;62.50;;
51525;SDS011;37611;51.794;21.590;2022-12-29T17:39:21;54.10;;;32.10;;
51525;SDS011;37611;51.794;21.590;2022-12-29T17:43:23;45.80;;;30.90;;
51525;SDS011;37611;51.794;21.590;2022-12-29T17:47:25;56.60;;;37.60;;
51525;SDS011;37611;51.794;21.590;2022-12-29T17:51:26;45.90;;;28.70;;
51525;SDS011;37611;51.794;21.590;2022-12-29T17:55:28;54.10;;;33.10;;
51525;SDS011;37611;51.794;21.590;2022-12-29T17:59:31;39.30;;;27.50;;
51525;SDS011;37611;51.794;21.590;2022-12-29T18:03:33;48.50;;;32.40;;
51525;SDS011;37611;51.794;21.590;2022-12-29T18:07:36;62.20;;;40.00;;
51525;SDS011;37611;51.794;21.590;2022-12-29T18:11:39;59.30;;;37.50;;
51525;SDS011;37611;51.794;21.590;2022-12-29T18:15:42;70.70;;;42.80;;
51525;SDS011;37611;51.794;21.590;2022-12-29T18:19:44;67.50;;;42.90;;
51525;SDS011;37611;51.794;21.590;2022-12-29T18:23:46;59.90;;;41.60;;
51525;SDS011;37611;51.794;21.590;2022-12-29T18:27:49;55.50;;;37.30;;
51525;SDS011;37611;51.794;21.590;2022-12-29T18:31:50;50.80;;;32.10;;
51525;SDS011;37611;51.794;21.590;2022-12-29T18:36:02;65.20;;;43.60;;
51525;SDS011;37611;51.794;21.590;2022-12-29T18:40:07;67.40;;;44.40;;
51525;SDS011;37611;51.794;21.590;2022-12-29T18:44:12;179.90;;;82.70;;
51525;SDS011;37611;51.794;21.590;2022-12-29T18:48:14;179.90;;;76.40;;
51525;SDS011;37611;51.794;21.590;2022-12-29T18:52:17;269.50;;;97.00;;
51525;SDS011;37611;51.794;21.590;2022-12-29T18:56:19;79.30;;;42.00;;
51525;SDS011;37611;51.794;21.590;2022-12-29T19:00:22;76.30;;;45.80;;
51525;SDS011;37611;51.794;21.590;2022-12-29T19:04:24;43.50;;;30.70;;
51525;SDS011;37611;51.794;21.590;2022-12-29T19:08:26;39.70;;;28.80;;
51525;SDS011;37611;51.794;21.590;2022-12-29T19:12:28;64.50;;;47.10;;
51525;SDS011;37611;51.794;21.590;2022-12-29T19:16:29;94.40;;;77.40;;
51525;SDS011;37611;51.794;21.590;2022-12-29T19:20:35;138.30;;;123.40;;
51525;SDS011;37611;51.794;21.590;2022-12-29T19:24:39;54.50;;;41.90;;
51525;SDS011;37611;51.794;21.590;2022-12-29T19:28:41;39.00;;;27.40;;
51525;SDS011;37611;51.794;21.590;2022-12-29T19:32:42;39.90;;;28.10;;
51525;SDS011;37611;51.794;21.590;2022-12-29T19:36:44;36.20;;;26.30;;
51525;SDS011;37611;51.794;21.590;2022-12-29T19:40:47;51.20;;;35.70;;
51525;SDS011;37611;51.794;21.590;2022-12-29T19:44:51;35.70;;;26.30;;
51525;SDS011;37611;51.794;21.590;2022-12-29T19:48:52;35.40;;;24.00;;
51525;SDS011;37611;51.794;21.590;2022-12-29T19:52:58;43.60;;;27.50;;
51525;SDS011;37611;51.794;21.590;2022-12-29T19:57:00;39.90;;;27.90;;
51525;SDS011;37611;51.794;21.590;2022-12-29T20:01:04;32.10;;;21.90;;
51525;SDS011;37611;51.794;21.590;2022-12-29T20:09:12;38.30;;;27.90;;
51525;SDS011;37611;51.794;21.590;2022-12-29T20:13:14;31.40;;;21.90;;
51525;SDS011;37611;51.794;21.590;2022-12-29T20:17:16;30.20;;;20.90;;
51525;SDS011;37611;51.794;21.590;2022-12-29T20:21:21;31.10;;;22.50;;
51525;SDS011;37611;51.794;21.590;2022-12-29T20:25:24;38.30;;;24.60;;
51525;SDS011;37611;51.794;21.590;2022-12-29T20:29:26;33.50;;;24.10;;
51525;SDS011;37611;51.794;21.590;2022-12-29T20:33:29;36.60;;;24.70;;
51525;SDS011;37611;51.794;21.590;2022-12-29T20:37:32;36.40;;;24.10;;
51525;SDS011;37611;51.794;21.590;2022-12-29T20:41:34;35.50;;;25.50;;
51525;SDS011;37611;51.794;21.590;2022-12-29T20:45:36;42.60;;;28.50;;
51525;SDS011;37611;51.794;21.590;2022-12-29T20:49:38;34.70;;;23.50;;
51525;SDS011;37611;51.794;21.590;2022-12-29T20:53:39;34.90;;;23.40;;
51525;SDS011;37611;51.794;21.590;2022-12-29T20:57:42;31.60;;;22.80;;
51525;SDS011;37611;51.794;21.590;2022-12-29T21:01:44;32.30;;;22.40;;
51525;SDS011;37611;51.794;21.590;2022-12-29T21:05:45;35.30;;;23.20;;
51525;SDS011;37611;51.794;21.590;2022-12-29T21:09:47;32.50;;;22.60;;
51525;SDS011;37611;51.794;21.590;2022-12-29T21:13:49;44.60;;;31.60;;
51525;SDS011;37611;51.794;21.590;2022-12-29T21:17:50;41.40;;;29.50;;
51525;SDS011;37611;51.794;21.590;2022-12-29T21:21:52;29.30;;;20.10;;
51525;SDS011;37611;51.794;21.590;2022-12-29T21:25:54;31.30;;;22.20;;
51525;SDS011;37611;51.794;21.590;2022-12-29T21:29:56;30.60;;;22.10;;
51525;SDS011;37611;51.794;21.590;2022-12-29T21:33:59;29.90;;;20.60;;
51525;SDS011;37611;51.794;21.590;2022-12-29T21:38:01;28.90;;;20.10;;
51525;SDS011;37611;51.794;21.590;2022-12-29T21:42:03;27.00;;;18.90;;
51525;SDS011;37611;51.794;21.590;2022-12-29T21:46:05;32.40;;;23.20;;
51525;SDS011;37611;51.794;21.590;2022-12-29T21:50:07;32.30;;;22.40;;
51525;SDS011;37611;51.794;21.590;2022-12-29T21:54:09;30.60;;;20.80;;
51525;SDS011;37611;51.794;21.590;2022-12-29T21:58:29;30.70;;;20.90;;
51525;SDS011;37611;51.794;21.590;2022-12-29T22:02:49;33.50;;;21.10;;
51525;SDS011;37611;51.794;21.590;2022-12-29T22:07:10;28.10;;;19.00;;
51525;SDS011;37611;51.794;21.590;2022-12-29T22:11:31;27.90;;;19.30;;
51525;SDS011;37611;51.794;21.590;2022-12-29T22:15:52;29.20;;;20.20;;
51525;SDS011;37611;51.794;21.590;2022-12-29T22:19:54;25.90;;;18.00;;
51525;SDS011;37611;51.794;21.590;2022-12-29T22:23:55;34.00;;;18.90;;
51525;SDS011;37611;51.794;21.590;2022-12-29T22:27:57;24.70;;;15.20;;
51525;SDS011;37611;51.794;21.590;2022-12-29T22:31:59;26.80;;;19.60;;
51525;SDS011;37611;51.794;21.590;2022-12-29T22:36:01;28.10;;;19.00;;
51525;SDS011;37611;51.794;21.590;2022-12-29T22:40:03;27.50;;;18.70;;
51525;SDS011;37611;51.794;21.590;2022-12-29T22:44:07;25.10;;;17.40;;
51525;SDS011;37611;51.794;21.590;2022-12-29T22:48:08;27.10;;;17.50;;
51525;SDS011;37611;51.794;21.590;2022-12-29T22:52:10;26.30;;;17.70;;
51525;SDS011;37611;51.794;21.590;2022-12-29T22:56:12;30.60;;;21.70;;
51525;SDS011;37611;51.794;21.590;2022-12-29T23:00:14;27.40;;;19.20;;
51525;SDS011;37611;51.794;21.590;2022-12-29T23:04:16;43.10;;;30.80;;
51525;SDS011;37611;51.794;21.590;2022-12-29T23:08:18;43.80;;;29.90;;
51525;SDS011;37611;51.794;21.590;2022-12-29T23:12:20;36.10;;;24.40;;
51525;SDS011;37611;51.794;21.590;2022-12-29T23:16:22;31.20;;;22.80;;
51525;SDS011;37611;51.794;21.590;2022-12-29T23:20:24;26.40;;;17.30;;
51525;SDS011;37611;51.794;21.590;2022-12-29T23:24:25;26.00;;;17.90;;
51525;SDS011;37611;51.794;21.590;2022-12-29T23:28:27;24.80;;;17.50;;
51525;SDS011;37611;51.794;21.590;2022-12-29T23:32:29;27.30;;;17.80;;
51525;SDS011;37611;51.794;21.590;2022-12-29T23:36:31;39.50;;;24.00;;
51525;SDS011;37611;51.794;21.590;2022-12-29T23:40:33;32.70;;;19.60;;
51525;SDS011;37611;51.794;21.590;2022-12-29T23:44:34;36.00;;;23.60;;
51525;SDS011;37611;51.794;21.590;2022-12-29T23:48:36;28.50;;;17.90;;
51525;SDS011;37611;51.794;21.590;2022-12-29T23:52:38;26.80;;;17.50;;
51525;SDS011;37611;51.794;21.590;2022-12-29T23:56:39;27.30;;;18.60;;
